sensor_id;sensor_type;location;lat;lon;timestamp;P1;durP1;ratioP1;P2;durP2;ratioP2
80320;SDS011;69633;47.066;15.450;2023-06-10T00:00:10;9.98;;;5.70;;
80320;SDS011;69633;47.066;15.450;2023-06-10T00:02:40;8.75;;;5.40;;
80320;SDS011;69633;47.066;15.450;2023-06-10T00:05:07;10.43;;;6.03;;
80320;SDS011;69633;47.066;15.450;2023-06-10T00:07:36;11.88;;;4.85;;
80320;SDS011;69633;47.066;15.450;2023-06-10T00:12:29;9.37;;;5.33;;
80320;SDS011;69633;47.066;15.450;2023-06-10T00:14:56;8.52;;;5.50;;
80320;SDS011;69633;47.066;15.450;2023-06-10T00:17:23;10.07;;;5.55;;
80320;SDS011;69633;47.066;15.450;2023-06-10T00:19:54;9.50;;;5.35;;
80320;SDS011;69633;47.066;15.450;2023-06-10T00:22:21;9.07;;;5.65;;
80320;SDS011;69633;47.066;15.450;2023-06-10T00:24:48;9.90;;;5.15;;
80320;SDS011;69633;47.066;15.450;2023-06-10T00:27:15;8.30;;;5.20;;
80320;SDS011;69633;47.066;15.450;2023-06-10T00:29:41;11.98;;;5.72;;
80320;SDS011;69633;47.066;15.450;2023-06-10T00:32:08;10.25;;;5.68;;
80320;SDS011;69633;47.066;15.450;2023-06-10T00:34:35;9.68;;;5.45;;
80320;SDS011;69633;47.066;15.450;2023-06-10T00:37:07;7.53;;;5.05;;
80320;SDS011;69633;47.066;15.450;2023-06-10T00:39:33;7.53;;;4.90;;
80320;SDS011;69633;47.066;15.450;2023-06-10T00:42:00;12.75;;;6.18;;
80320;SDS011;69633;47.066;15.450;2023-06-10T00:44:26;8.30;;;5.30;;
80320;SDS011;69633;47.066;15.450;2023-06-10T00:46:52;8.57;;;4.65;;
80320;SDS011;69633;47.066;15.450;2023-06-10T00:49:20;6.80;;;4.70;;
80320;SDS011;69633;47.066;15.450;2023-06-10T00:51:47;7.65;;;5.00;;
80320;SDS011;69633;47.066;15.450;2023-06-10T00:54:14;8.55;;;5.13;;
80320;SDS011;69633;47.066;15.450;2023-06-10T00:56:41;8.57;;;5.00;;
80320;SDS011;69633;47.066;15.450;2023-06-10T00:59:09;9.65;;;6.07;;
80320;SDS011;69633;47.066;15.450;2023-06-10T01:01:36;10.68;;;5.13;;
80320;SDS011;69633;47.066;15.450;2023-06-10T01:04:03;8.70;;;5.50;;
80320;SDS011;69633;47.066;15.450;2023-06-10T01:15:33;7.55;;;4.75;;
80320;SDS011;69633;47.066;15.450;2023-06-10T01:18:01;8.77;;;4.82;;
80320;SDS011;69633;47.066;15.450;2023-06-10T01:20:40;9.75;;;4.97;;
80320;SDS011;69633;47.066;15.450;2023-06-10T01:23:12;7.85;;;5.15;;
80320;SDS011;69633;47.066;15.450;2023-06-10T01:25:41;8.32;;;4.97;;
80320;SDS011;69633;47.066;15.450;2023-06-10T01:34:16;9.27;;;4.75;;
80320;SDS011;69633;47.066;15.450;2023-06-10T01:36:47;8.95;;;5.30;;
80320;SDS011;69633;47.066;15.450;2023-06-10T01:39:29;9.90;;;5.05;;
80320;SDS011;69633;47.066;15.450;2023-06-10T01:41:58;9.43;;;5.05;;
80320;SDS011;69633;47.066;15.450;2023-06-10T01:44:45;8.88;;;4.78;;
80320;SDS011;69633;47.066;15.450;2023-06-10T01:47:10;8.05;;;4.72;;
80320;SDS011;69633;47.066;15.450;2023-06-10T01:49:37;10.23;;;4.68;;
80320;SDS011;69633;47.066;15.450;2023-06-10T01:54:28;7.87;;;4.83;;
80320;SDS011;69633;47.066;15.450;2023-06-10T01:56:54;6.80;;;4.78;;
80320;SDS011;69633;47.066;15.450;2023-06-10T01:59:20;7.57;;;4.88;;
80320;SDS011;69633;47.066;15.450;2023-06-10T02:01:47;9.65;;;5.32;;
80320;SDS011;69633;47.066;15.450;2023-06-10T02:04:14;9.15;;;4.90;;
80320;SDS011;69633;47.066;15.450;2023-06-10T02:06:41;10.90;;;5.03;;
80320;SDS011;69633;47.066;15.450;2023-06-10T02:09:08;9.85;;;5.00;;
80320;SDS011;69633;47.066;15.450;2023-06-10T02:11:34;7.72;;;5.10;;
80320;SDS011;69633;47.066;15.450;2023-06-10T02:14:03;10.52;;;4.93;;
80320;SDS011;69633;47.066;15.450;2023-06-10T02:16:30;7.03;;;4.45;;
80320;SDS011;69633;47.066;15.450;2023-06-10T02:18:59;7.35;;;4.88;;
80320;SDS011;69633;47.066;15.450;2023-06-10T02:21:27;10.77;;;5.47;;
80320;SDS011;69633;47.066;15.450;2023-06-10T02:23:54;9.90;;;5.60;;
80320;SDS011;69633;47.066;15.450;2023-06-10T02:26:21;7.35;;;4.95;;
80320;SDS011;69633;47.066;15.450;2023-06-10T02:28:48;9.38;;;5.53;;
80320;SDS011;69633;47.066;15.450;2023-06-10T02:31:16;11.10;;;5.38;;
80320;SDS011;69633;47.066;15.450;2023-06-10T02:33:44;10.60;;;5.00;;
80320;SDS011;69633;47.066;15.450;2023-06-10T02:36:10;10.80;;;5.72;;
80320;SDS011;69633;47.066;15.450;2023-06-10T02:38:40;10.32;;;5.72;;
80320;SDS011;69633;47.066;15.450;2023-06-10T02:41:08;10.15;;;5.38;;
80320;SDS011;69633;47.066;15.450;2023-06-10T02:43:35;10.95;;;5.80;;
80320;SDS011;69633;47.066;15.450;2023-06-10T02:46:01;9.18;;;5.43;;
80320;SDS011;69633;47.066;15.450;2023-06-10T02:48:28;10.05;;;4.82;;
80320;SDS011;69633;47.066;15.450;2023-06-10T02:50:54;9.10;;;5.32;;
80320;SDS011;69633;47.066;15.450;2023-06-10T02:53:22;7.85;;;5.05;;
80320;SDS011;69633;47.066;15.450;2023-06-10T02:55:49;8.25;;;4.65;;
80320;SDS011;69633;47.066;15.450;2023-06-10T02:58:14;11.45;;;5.25;;
80320;SDS011;69633;47.066;15.450;2023-06-10T03:00:41;11.35;;;5.00;;
80320;SDS011;69633;47.066;15.450;2023-06-10T03:03:08;7.70;;;4.85;;
80320;SDS011;69633;47.066;15.450;2023-06-10T03:05:37;8.55;;;4.30;;
80320;SDS011;69633;47.066;15.450;2023-06-10T03:08:02;7.45;;;4.90;;
80320;SDS011;69633;47.066;15.450;2023-06-10T03:10:29;8.75;;;5.03;;
80320;SDS011;69633;47.066;15.450;2023-06-10T03:12:56;9.00;;;5.30;;
80320;SDS011;69633;47.066;15.450;2023-06-10T03:15:21;8.43;;;4.28;;
80320;SDS011;69633;47.066;15.450;2023-06-10T03:17:48;7.38;;;4.38;;
80320;SDS011;69633;47.066;15.450;2023-06-10T03:20:15;7.72;;;4.75;;
80320;SDS011;69633;47.066;15.450;2023-06-10T03:22:44;7.57;;;4.43;;
80320;SDS011;69633;47.066;15.450;2023-06-10T03:25:10;8.55;;;4.60;;
80320;SDS011;69633;47.066;15.450;2023-06-10T03:27:39;7.95;;;4.15;;
80320;SDS011;69633;47.066;15.450;2023-06-10T03:30:08;7.32;;;4.78;;
80320;SDS011;69633;47.066;15.450;2023-06-10T03:32:36;7.78;;;4.55;;
80320;SDS011;69633;47.066;15.450;2023-06-10T03:35:02;11.73;;;4.75;;
80320;SDS011;69633;47.066;15.450;2023-06-10T03:37:29;7.28;;;4.70;;
80320;SDS011;69633;47.066;15.450;2023-06-10T03:39:54;7.18;;;4.47;;
80320;SDS011;69633;47.066;15.450;2023-06-10T03:42:22;9.75;;;4.57;;
80320;SDS011;69633;47.066;15.450;2023-06-10T03:44:49;10.00;;;4.75;;
80320;SDS011;69633;47.066;15.450;2023-06-10T03:47:17;8.07;;;5.00;;
80320;SDS011;69633;47.066;15.450;2023-06-10T03:49:44;7.93;;;5.18;;
80320;SDS011;69633;47.066;15.450;2023-06-10T03:52:10;10.02;;;4.65;;
80320;SDS011;69633;47.066;15.450;2023-06-10T03:54:36;12.88;;;5.30;;
80320;SDS011;69633;47.066;15.450;2023-06-10T03:57:02;9.65;;;4.57;;
80320;SDS011;69633;47.066;15.450;2023-06-10T03:59:28;7.90;;;4.47;;
80320;SDS011;69633;47.066;15.450;2023-06-10T04:01:55;8.10;;;4.10;;
80320;SDS011;69633;47.066;15.450;2023-06-10T04:04:22;7.55;;;4.72;;
80320;SDS011;69633;47.066;15.450;2023-06-10T04:06:51;8.52;;;4.82;;
80320;SDS011;69633;47.066;15.450;2023-06-10T04:09:18;7.57;;;4.57;;
80320;SDS011;69633;47.066;15.450;2023-06-10T04:11:46;7.35;;;4.50;;
80320;SDS011;69633;47.066;15.450;2023-06-10T04:14:11;6.38;;;4.20;;
80320;SDS011;69633;47.066;15.450;2023-06-10T04:16:39;8.50;;;4.50;;
80320;SDS011;69633;47.066;15.450;2023-06-10T04:19:05;6.05;;;3.88;;
80320;SDS011;69633;47.066;15.450;2023-06-10T04:21:32;8.38;;;4.68;;
80320;SDS011;69633;47.066;15.450;2023-06-10T04:23:58;9.80;;;4.93;;
80320;SDS011;69633;47.066;15.450;2023-06-10T04:26:24;7.15;;;4.53;;
80320;SDS011;69633;47.066;15.450;2023-06-10T04:28:51;10.68;;;4.22;;
80320;SDS011;69633;47.066;15.450;2023-06-10T04:31:20;6.57;;;4.28;;
80320;SDS011;69633;47.066;15.450;2023-06-10T04:33:46;7.95;;;4.75;;
80320;SDS011;69633;47.066;15.450;2023-06-10T04:36:13;6.95;;;4.53;;
80320;SDS011;69633;47.066;15.450;2023-06-10T04:38:41;7.20;;;4.50;;
80320;SDS011;69633;47.066;15.450;2023-06-10T04:41:08;8.43;;;4.63;;
80320;SDS011;69633;47.066;15.450;2023-06-10T04:43:35;7.40;;;4.70;;
80320;SDS011;69633;47.066;15.450;2023-06-10T04:46:02;7.30;;;4.80;;
80320;SDS011;69633;47.066;15.450;2023-06-10T04:48:29;8.93;;;4.82;;
80320;SDS011;69633;47.066;15.450;2023-06-10T04:50:56;7.03;;;4.65;;
80320;SDS011;69633;47.066;15.450;2023-06-10T04:53:26;6.90;;;4.63;;
80320;SDS011;69633;47.066;15.450;2023-06-10T04:55:57;7.90;;;4.75;;
80320;SDS011;69633;47.066;15.450;2023-06-10T04:58:23;11.00;;;4.75;;
80320;SDS011;69633;47.066;15.450;2023-06-10T05:00:51;8.82;;;4.78;;
80320;SDS011;69633;47.066;15.450;2023-06-10T05:03:17;9.70;;;4.82;;
80320;SDS011;69633;47.066;15.450;2023-06-10T05:05:46;9.57;;;5.05;;
80320;SDS011;69633;47.066;15.450;2023-06-10T05:08:12;8.80;;;4.43;;
80320;SDS011;69633;47.066;15.450;2023-06-10T05:10:39;9.30;;;5.00;;
80320;SDS011;69633;47.066;15.450;2023-06-10T05:13:07;8.98;;;5.20;;
80320;SDS011;69633;47.066;15.450;2023-06-10T05:15:33;9.73;;;5.18;;
80320;SDS011;69633;47.066;15.450;2023-06-10T05:17:59;9.73;;;6.00;;
80320;SDS011;69633;47.066;15.450;2023-06-10T05:20:29;12.70;;;6.55;;
80320;SDS011;69633;47.066;15.450;2023-06-10T05:22:57;9.05;;;5.70;;
80320;SDS011;69633;47.066;15.450;2023-06-10T05:25:22;10.27;;;5.72;;
80320;SDS011;69633;47.066;15.450;2023-06-10T05:27:48;10.73;;;6.18;;
80320;SDS011;69633;47.066;15.450;2023-06-10T05:30:15;9.75;;;5.78;;
80320;SDS011;69633;47.066;15.450;2023-06-10T05:32:45;8.90;;;5.57;;
80320;SDS011;69633;47.066;15.450;2023-06-10T05:35:12;8.98;;;5.65;;
80320;SDS011;69633;47.066;15.450;2023-06-10T05:37:40;7.78;;;5.30;;
80320;SDS011;69633;47.066;15.450;2023-06-10T05:40:09;7.47;;;5.15;;
80320;SDS011;69633;47.066;15.450;2023-06-10T05:42:36;7.78;;;5.40;;
80320;SDS011;69633;47.066;15.450;2023-06-10T05:45:05;7.07;;;4.63;;
80320;SDS011;69633;47.066;15.450;2023-06-10T05:47:41;8.20;;;5.07;;
80320;SDS011;69633;47.066;15.450;2023-06-10T05:50:08;8.27;;;4.82;;
80320;SDS011;69633;47.066;15.450;2023-06-10T05:52:36;8.95;;;4.97;;
80320;SDS011;69633;47.066;15.450;2023-06-10T05:55:02;8.82;;;5.30;;
80320;SDS011;69633;47.066;15.450;2023-06-10T05:57:30;8.85;;;5.25;;
80320;SDS011;69633;47.066;15.450;2023-06-10T05:59:59;8.35;;;4.95;;
80320;SDS011;69633;47.066;15.450;2023-06-10T06:02:26;10.35;;;5.53;;
80320;SDS011;69633;47.066;15.450;2023-06-10T06:04:54;8.40;;;4.95;;
80320;SDS011;69633;47.066;15.450;2023-06-10T06:07:22;8.88;;;5.10;;
80320;SDS011;69633;47.066;15.450;2023-06-10T06:09:48;8.38;;;5.32;;
80320;SDS011;69633;47.066;15.450;2023-06-10T06:12:15;8.13;;;4.88;;
80320;SDS011;69633;47.066;15.450;2023-06-10T06:14:41;8.18;;;5.57;;
80320;SDS011;69633;47.066;15.450;2023-06-10T06:17:08;8.50;;;4.97;;
80320;SDS011;69633;47.066;15.450;2023-06-10T06:19:34;9.85;;;4.85;;
80320;SDS011;69633;47.066;15.450;2023-06-10T06:22:01;13.65;;;5.20;;
80320;SDS011;69633;47.066;15.450;2023-06-10T06:24:27;7.45;;;5.18;;
80320;SDS011;69633;47.066;15.450;2023-06-10T06:26:54;8.95;;;5.00;;
80320;SDS011;69633;47.066;15.450;2023-06-10T06:29:21;9.02;;;5.25;;
80320;SDS011;69633;47.066;15.450;2023-06-10T06:31:47;8.00;;;4.75;;
80320;SDS011;69633;47.066;15.450;2023-06-10T06:34:14;8.02;;;4.93;;
80320;SDS011;69633;47.066;15.450;2023-06-10T06:36:41;9.32;;;4.97;;
80320;SDS011;69633;47.066;15.450;2023-06-10T06:39:08;7.93;;;4.70;;
80320;SDS011;69633;47.066;15.450;2023-06-10T06:41:36;9.48;;;5.25;;
80320;SDS011;69633;47.066;15.450;2023-06-10T06:44:01;8.73;;;4.90;;
80320;SDS011;69633;47.066;15.450;2023-06-10T06:46:29;8.52;;;5.05;;
80320;SDS011;69633;47.066;15.450;2023-06-10T06:48:54;10.15;;;5.70;;
80320;SDS011;69633;47.066;15.450;2023-06-10T06:51:22;10.90;;;5.68;;
80320;SDS011;69633;47.066;15.450;2023-06-10T06:53:48;9.52;;;5.47;;
80320;SDS011;69633;47.066;15.450;2023-06-10T06:56:17;13.55;;;6.03;;
80320;SDS011;69633;47.066;15.450;2023-06-10T06:58:43;7.63;;;5.35;;
80320;SDS011;69633;47.066;15.450;2023-06-10T07:01:09;11.63;;;6.45;;
80320;SDS011;69633;47.066;15.450;2023-06-10T07:03:36;9.77;;;5.78;;
80320;SDS011;69633;47.066;15.450;2023-06-10T07:06:03;9.23;;;5.72;;
80320;SDS011;69633;47.066;15.450;2023-06-10T07:08:29;10.93;;;5.82;;
80320;SDS011;69633;47.066;15.450;2023-06-10T07:10:56;9.88;;;6.60;;
80320;SDS011;69633;47.066;15.450;2023-06-10T07:13:23;9.00;;;5.18;;
80320;SDS011;69633;47.066;15.450;2023-06-10T07:15:50;9.45;;;5.88;;
80320;SDS011;69633;47.066;15.450;2023-06-10T07:18:16;7.75;;;5.18;;
80320;SDS011;69633;47.066;15.450;2023-06-10T07:20:44;8.77;;;5.35;;
80320;SDS011;69633;47.066;15.450;2023-06-10T07:23:11;7.22;;;4.95;;
80320;SDS011;69633;47.066;15.450;2023-06-10T07:25:38;7.88;;;5.00;;
80320;SDS011;69633;47.066;15.450;2023-06-10T07:28:05;8.52;;;5.90;;
80320;SDS011;69633;47.066;15.450;2023-06-10T07:30:31;13.05;;;5.80;;
80320;SDS011;69633;47.066;15.450;2023-06-10T07:32:57;8.20;;;5.30;;
80320;SDS011;69633;47.066;15.450;2023-06-10T07:35:23;8.23;;;5.18;;
80320;SDS011;69633;47.066;15.450;2023-06-10T07:37:50;6.90;;;5.18;;
80320;SDS011;69633;47.066;15.450;2023-06-10T07:40:17;7.75;;;4.85;;
80320;SDS011;69633;47.066;15.450;2023-06-10T07:42:44;7.88;;;5.60;;
80320;SDS011;69633;47.066;15.450;2023-06-10T07:45:29;8.88;;;5.65;;
80320;SDS011;69633;47.066;15.450;2023-06-10T07:47:57;8.18;;;5.70;;
80320;SDS011;69633;47.066;15.450;2023-06-10T07:50:24;7.40;;;4.82;;
80320;SDS011;69633;47.066;15.450;2023-06-10T07:52:55;7.72;;;5.32;;
80320;SDS011;69633;47.066;15.450;2023-06-10T07:55:21;7.32;;;5.13;;
80320;SDS011;69633;47.066;15.450;2023-06-10T07:57:49;7.68;;;5.25;;
80320;SDS011;69633;47.066;15.450;2023-06-10T08:00:15;9.18;;;6.03;;
80320;SDS011;69633;47.066;15.450;2023-06-10T08:02:43;7.97;;;4.68;;
80320;SDS011;69633;47.066;15.450;2023-06-10T08:05:11;8.07;;;5.72;;
80320;SDS011;69633;47.066;15.450;2023-06-10T08:07:41;8.15;;;5.10;;
80320;SDS011;69633;47.066;15.450;2023-06-10T08:10:08;9.45;;;5.22;;
80320;SDS011;69633;47.066;15.450;2023-06-10T08:12:36;9.05;;;5.22;;
80320;SDS011;69633;47.066;15.450;2023-06-10T08:15:02;9.20;;;5.38;;
80320;SDS011;69633;47.066;15.450;2023-06-10T08:17:32;7.60;;;5.28;;
80320;SDS011;69633;47.066;15.450;2023-06-10T08:19:58;10.60;;;5.65;;
80320;SDS011;69633;47.066;15.450;2023-06-10T08:22:25;9.07;;;5.43;;
80320;SDS011;69633;47.066;15.450;2023-06-10T08:24:52;9.05;;;5.60;;
80320;SDS011;69633;47.066;15.450;2023-06-10T08:27:18;8.90;;;5.93;;
80320;SDS011;69633;47.066;15.450;2023-06-10T08:29:45;9.07;;;5.68;;
80320;SDS011;69633;47.066;15.450;2023-06-10T08:32:11;9.23;;;5.70;;
80320;SDS011;69633;47.066;15.450;2023-06-10T08:34:51;8.73;;;5.68;;
80320;SDS011;69633;47.066;15.450;2023-06-10T08:37:18;8.68;;;5.15;;
80320;SDS011;69633;47.066;15.450;2023-06-10T08:39:45;7.70;;;5.70;;
80320;SDS011;69633;47.066;15.450;2023-06-10T08:45:07;8.07;;;5.25;;
80320;SDS011;69633;47.066;15.450;2023-06-10T08:47:37;9.50;;;5.47;;
80320;SDS011;69633;47.066;15.450;2023-06-10T08:50:06;8.63;;;5.25;;
80320;SDS011;69633;47.066;15.450;2023-06-10T08:52:40;7.53;;;5.60;;
80320;SDS011;69633;47.066;15.450;2023-06-10T08:55:18;8.52;;;6.13;;
80320;SDS011;69633;47.066;15.450;2023-06-10T08:57:52;10.48;;;6.13;;
80320;SDS011;69633;47.066;15.450;2023-06-10T09:00:21;10.85;;;5.72;;
80320;SDS011;69633;47.066;15.450;2023-06-10T09:02:47;11.02;;;6.30;;
80320;SDS011;69633;47.066;15.450;2023-06-10T09:05:15;8.18;;;5.05;;
80320;SDS011;69633;47.066;15.450;2023-06-10T09:07:43;9.43;;;5.20;;
80320;SDS011;69633;47.066;15.450;2023-06-10T09:10:11;9.77;;;6.25;;
80320;SDS011;69633;47.066;15.450;2023-06-10T09:12:38;7.68;;;5.53;;
80320;SDS011;69633;47.066;15.450;2023-06-10T09:15:06;8.93;;;5.50;;
80320;SDS011;69633;47.066;15.450;2023-06-10T09:17:32;10.98;;;6.15;;
80320;SDS011;69633;47.066;15.450;2023-06-10T09:20:00;9.02;;;5.57;;
80320;SDS011;69633;47.066;15.450;2023-06-10T09:22:29;8.85;;;6.50;;
80320;SDS011;69633;47.066;15.450;2023-06-10T09:25:05;8.75;;;5.70;;
80320;SDS011;69633;47.066;15.450;2023-06-10T09:27:49;9.45;;;5.75;;
80320;SDS011;69633;47.066;15.450;2023-06-10T09:30:26;9.75;;;6.25;;
80320;SDS011;69633;47.066;15.450;2023-06-10T09:32:56;8.68;;;6.10;;
80320;SDS011;69633;47.066;15.450;2023-06-10T09:35:37;11.35;;;6.03;;
80320;SDS011;69633;47.066;15.450;2023-06-10T09:38:30;12.18;;;6.22;;
80320;SDS011;69633;47.066;15.450;2023-06-10T09:40:58;7.88;;;5.70;;
80320;SDS011;69633;47.066;15.450;2023-06-10T09:43:43;9.48;;;6.50;;
80320;SDS011;69633;47.066;15.450;2023-06-10T09:46:17;8.68;;;6.43;;
80320;SDS011;69633;47.066;15.450;2023-06-10T09:48:45;8.90;;;5.82;;
80320;SDS011;69633;47.066;15.450;2023-06-10T09:51:14;7.63;;;5.43;;
80320;SDS011;69633;47.066;15.450;2023-06-10T09:53:48;9.18;;;5.63;;
80320;SDS011;69633;47.066;15.450;2023-06-10T09:56:15;12.13;;;5.97;;
80320;SDS011;69633;47.066;15.450;2023-06-10T09:58:44;9.25;;;5.95;;
80320;SDS011;69633;47.066;15.450;2023-06-10T10:03:43;10.57;;;5.90;;
80320;SDS011;69633;47.066;15.450;2023-06-10T10:06:17;10.50;;;5.78;;
80320;SDS011;69633;47.066;15.450;2023-06-10T10:08:45;10.80;;;6.85;;
80320;SDS011;69633;47.066;15.450;2023-06-10T10:11:19;9.10;;;5.95;;
80320;SDS011;69633;47.066;15.450;2023-06-10T10:13:49;8.57;;;5.82;;
80320;SDS011;69633;47.066;15.450;2023-06-10T10:16:21;8.77;;;5.80;;
80320;SDS011;69633;47.066;15.450;2023-06-10T10:18:59;10.63;;;5.93;;
80320;SDS011;69633;47.066;15.450;2023-06-10T10:21:32;8.63;;;6.05;;
80320;SDS011;69633;47.066;15.450;2023-06-10T10:24:05;10.02;;;6.43;;
80320;SDS011;69633;47.066;15.450;2023-06-10T10:26:38;10.25;;;6.43;;
80320;SDS011;69633;47.066;15.450;2023-06-10T10:31:32;10.70;;;7.07;;
80320;SDS011;69633;47.066;15.450;2023-06-10T10:34:09;10.25;;;6.25;;
80320;SDS011;69633;47.066;15.450;2023-06-10T10:36:57;9.45;;;6.18;;
80320;SDS011;69633;47.066;15.450;2023-06-10T10:39:23;15.00;;;8.23;;
80320;SDS011;69633;47.066;15.450;2023-06-10T10:41:51;9.48;;;5.82;;
80320;SDS011;69633;47.066;15.450;2023-06-10T10:44:18;9.05;;;6.28;;
80320;SDS011;69633;47.066;15.450;2023-06-10T10:46:49;9.25;;;6.35;;
80320;SDS011;69633;47.066;15.450;2023-06-10T10:49:17;8.88;;;6.35;;
80320;SDS011;69633;47.066;15.450;2023-06-10T10:51:56;9.82;;;6.15;;
80320;SDS011;69633;47.066;15.450;2023-06-10T10:54:30;9.43;;;5.63;;
80320;SDS011;69633;47.066;15.450;2023-06-10T10:59:56;8.40;;;5.70;;
80320;SDS011;69633;47.066;15.450;2023-06-10T11:02:45;9.00;;;6.15;;
80320;SDS011;69633;47.066;15.450;2023-06-10T11:05:15;8.65;;;5.75;;
80320;SDS011;69633;47.066;15.450;2023-06-10T11:07:52;10.13;;;5.60;;
80320;SDS011;69633;47.066;15.450;2023-06-10T11:10:30;9.57;;;6.00;;
80320;SDS011;69633;47.066;15.450;2023-06-10T11:13:22;7.90;;;5.60;;
80320;SDS011;69633;47.066;15.450;2023-06-10T11:15:56;9.40;;;5.75;;
80320;SDS011;69633;47.066;15.450;2023-06-10T11:21:10;8.45;;;6.22;;
80320;SDS011;69633;47.066;15.450;2023-06-10T11:23:40;6.95;;;5.35;;
80320;SDS011;69633;47.066;15.450;2023-06-10T11:29:02;7.13;;;5.55;;
80320;SDS011;69633;47.066;15.450;2023-06-10T11:31:42;8.50;;;6.22;;
80320;SDS011;69633;47.066;15.450;2023-06-10T11:34:10;7.78;;;5.50;;
80320;SDS011;69633;47.066;15.450;2023-06-10T11:36:39;8.00;;;5.43;;
80320;SDS011;69633;47.066;15.450;2023-06-10T11:39:11;6.78;;;4.78;;
80320;SDS011;69633;47.066;15.450;2023-06-10T11:41:39;6.90;;;5.13;;
80320;SDS011;69633;47.066;15.450;2023-06-10T11:46:56;7.60;;;5.70;;
80320;SDS011;69633;47.066;15.450;2023-06-10T11:49:22;6.85;;;4.82;;
80320;SDS011;69633;47.066;15.450;2023-06-10T11:51:51;9.88;;;5.18;;
80320;SDS011;69633;47.066;15.450;2023-06-10T11:54:19;6.65;;;4.88;;
80320;SDS011;69633;47.066;15.450;2023-06-10T11:56:46;7.32;;;5.07;;
80320;SDS011;69633;47.066;15.450;2023-06-10T11:59:13;7.38;;;4.43;;
80320;SDS011;69633;47.066;15.450;2023-06-10T12:01:43;7.60;;;5.00;;
80320;SDS011;69633;47.066;15.450;2023-06-10T12:04:13;5.70;;;4.40;;
80320;SDS011;69633;47.066;15.450;2023-06-10T12:09:29;6.70;;;4.72;;
80320;SDS011;69633;47.066;15.450;2023-06-10T12:17:50;6.28;;;4.88;;
80320;SDS011;69633;47.066;15.450;2023-06-10T12:20:26;6.53;;;4.70;;
80320;SDS011;69633;47.066;15.450;2023-06-10T12:22:55;5.93;;;4.68;;
80320;SDS011;69633;47.066;15.450;2023-06-10T12:25:28;9.27;;;4.50;;
80320;SDS011;69633;47.066;15.450;2023-06-10T12:27:58;5.07;;;4.05;;
80320;SDS011;69633;47.066;15.450;2023-06-10T12:30:25;6.10;;;4.47;;
80320;SDS011;69633;47.066;15.450;2023-06-10T12:32:52;7.13;;;4.18;;
80320;SDS011;69633;47.066;15.450;2023-06-10T12:35:21;7.60;;;3.90;;
80320;SDS011;69633;47.066;15.450;2023-06-10T12:38:00;6.57;;;4.00;;
80320;SDS011;69633;47.066;15.450;2023-06-10T12:40:35;5.82;;;4.40;;
80320;SDS011;69633;47.066;15.450;2023-06-10T12:43:07;6.72;;;4.13;;
80320;SDS011;69633;47.066;15.450;2023-06-10T12:45:37;5.40;;;4.00;;
80320;SDS011;69633;47.066;15.450;2023-06-10T12:48:24;6.32;;;4.30;;
80320;SDS011;69633;47.066;15.450;2023-06-10T12:50:53;6.40;;;4.43;;
80320;SDS011;69633;47.066;15.450;2023-06-10T12:53:38;7.25;;;4.30;;
80320;SDS011;69633;47.066;15.450;2023-06-10T12:56:07;5.90;;;4.40;;
80320;SDS011;69633;47.066;15.450;2023-06-10T12:58:33;6.60;;;4.70;;
80320;SDS011;69633;47.066;15.450;2023-06-10T13:01:00;5.40;;;4.00;;
80320;SDS011;69633;47.066;15.450;2023-06-10T13:03:26;7.88;;;4.53;;
80320;SDS011;69633;47.066;15.450;2023-06-10T13:05:54;7.13;;;4.53;;
80320;SDS011;69633;47.066;15.450;2023-06-10T13:08:22;5.65;;;4.25;;
80320;SDS011;69633;47.066;15.450;2023-06-10T13:10:48;7.43;;;4.40;;
80320;SDS011;69633;47.066;15.450;2023-06-10T13:13:15;6.07;;;4.13;;
80320;SDS011;69633;47.066;15.450;2023-06-10T13:15:40;6.90;;;4.13;;
80320;SDS011;69633;47.066;15.450;2023-06-10T13:18:06;6.28;;;4.68;;
80320;SDS011;69633;47.066;15.450;2023-06-10T13:20:32;7.05;;;4.22;;
80320;SDS011;69633;47.066;15.450;2023-06-10T13:22:59;6.18;;;4.30;;
80320;SDS011;69633;47.066;15.450;2023-06-10T13:25:25;7.20;;;4.13;;
80320;SDS011;69633;47.066;15.450;2023-06-10T13:27:54;6.78;;;4.30;;
80320;SDS011;69633;47.066;15.450;2023-06-10T13:30:23;7.35;;;4.32;;
80320;SDS011;69633;47.066;15.450;2023-06-10T13:32:49;8.95;;;4.53;;
80320;SDS011;69633;47.066;15.450;2023-06-10T13:35:16;7.90;;;4.28;;
80320;SDS011;69633;47.066;15.450;2023-06-10T13:37:43;5.70;;;4.20;;
80320;SDS011;69633;47.066;15.450;2023-06-10T13:40:10;5.30;;;3.65;;
80320;SDS011;69633;47.066;15.450;2023-06-10T13:42:37;5.32;;;3.75;;
80320;SDS011;69633;47.066;15.450;2023-06-10T13:45:05;5.68;;;4.00;;
80320;SDS011;69633;47.066;15.450;2023-06-10T13:47:32;5.43;;;3.70;;
80320;SDS011;69633;47.066;15.450;2023-06-10T13:49:59;6.32;;;4.22;;
80320;SDS011;69633;47.066;15.450;2023-06-10T13:52:25;4.88;;;3.67;;
80320;SDS011;69633;47.066;15.450;2023-06-10T13:54:52;4.35;;;3.20;;
80320;SDS011;69633;47.066;15.450;2023-06-10T13:57:19;4.07;;;3.13;;
80320;SDS011;69633;47.066;15.450;2023-06-10T13:59:46;4.88;;;3.10;;
80320;SDS011;69633;47.066;15.450;2023-06-10T14:02:12;7.40;;;3.85;;
80320;SDS011;69633;47.066;15.450;2023-06-10T14:04:39;5.57;;;3.40;;
80320;SDS011;69633;47.066;15.450;2023-06-10T14:07:06;6.07;;;3.78;;
80320;SDS011;69633;47.066;15.450;2023-06-10T14:09:34;5.50;;;3.83;;
80320;SDS011;69633;47.066;15.450;2023-06-10T14:12:01;6.25;;;3.60;;
80320;SDS011;69633;47.066;15.450;2023-06-10T14:14:30;6.70;;;4.10;;
80320;SDS011;69633;47.066;15.450;2023-06-10T14:17:01;6.68;;;4.28;;
80320;SDS011;69633;47.066;15.450;2023-06-10T14:19:35;6.70;;;4.38;;
80320;SDS011;69633;47.066;15.450;2023-06-10T14:22:01;7.10;;;4.75;;
80320;SDS011;69633;47.066;15.450;2023-06-10T14:24:28;8.10;;;3.88;;
80320;SDS011;69633;47.066;15.450;2023-06-10T14:26:55;5.60;;;3.63;;
80320;SDS011;69633;47.066;15.450;2023-06-10T14:29:24;5.80;;;3.90;;
80320;SDS011;69633;47.066;15.450;2023-06-10T14:31:54;6.13;;;4.05;;
80320;SDS011;69633;47.066;15.450;2023-06-10T14:34:22;7.57;;;4.07;;
80320;SDS011;69633;47.066;15.450;2023-06-10T14:36:54;7.63;;;5.10;;
80320;SDS011;69633;47.066;15.450;2023-06-10T14:39:20;6.25;;;4.40;;
80320;SDS011;69633;47.066;15.450;2023-06-10T14:41:47;6.78;;;4.53;;
80320;SDS011;69633;47.066;15.450;2023-06-10T14:44:14;7.32;;;4.72;;
80320;SDS011;69633;47.066;15.450;2023-06-10T14:46:41;8.65;;;5.38;;
80320;SDS011;69633;47.066;15.450;2023-06-10T14:49:08;7.13;;;4.43;;
80320;SDS011;69633;47.066;15.450;2023-06-10T14:51:36;6.93;;;4.75;;
80320;SDS011;69633;47.066;15.450;2023-06-10T14:54:03;6.80;;;4.07;;
80320;SDS011;69633;47.066;15.450;2023-06-10T14:56:29;6.32;;;3.85;;
80320;SDS011;69633;47.066;15.450;2023-06-10T14:58:56;6.80;;;4.65;;
80320;SDS011;69633;47.066;15.450;2023-06-10T15:01:23;7.68;;;4.18;;
80320;SDS011;69633;47.066;15.450;2023-06-10T15:03:49;7.70;;;4.80;;
80320;SDS011;69633;47.066;15.450;2023-06-10T15:06:15;5.47;;;3.92;;
80320;SDS011;69633;47.066;15.450;2023-06-10T15:08:46;5.88;;;4.22;;
80320;SDS011;69633;47.066;15.450;2023-06-10T15:11:15;5.65;;;4.15;;
80320;SDS011;69633;47.066;15.450;2023-06-10T15:13:42;6.97;;;4.60;;
80320;SDS011;69633;47.066;15.450;2023-06-10T15:16:10;6.50;;;4.25;;
80320;SDS011;69633;47.066;15.450;2023-06-10T15:18:37;5.47;;;4.07;;
80320;SDS011;69633;47.066;15.450;2023-06-10T15:21:03;7.38;;;4.07;;
80320;SDS011;69633;47.066;15.450;2023-06-10T15:23:29;5.93;;;4.00;;
80320;SDS011;69633;47.066;15.450;2023-06-10T15:25:56;6.05;;;4.20;;
80320;SDS011;69633;47.066;15.450;2023-06-10T15:28:27;6.47;;;4.20;;